Time;durP1;ratioP1;P1;durP2;ratioP2;P2;SDS_P1;SDS_P2;PMS_P1;PMS_P2;Temp;Humidity;BMP_temperature;BMP_pressure;BME280_temperature;BME280_humidity;BME280_pressure;Samples;Min_cycle;Max_cycle;Signal;HPM_P1;HPM_P2
2021/04/07 00:00:12;;;;;;;4.22;2.17;;;;;;;2.64;43.12;100981.69;3536997;40;20054;-68
2021/04/07 00:02:39;;;;;;;3.63;1.88;;;;;;;2.62;42.78;100989.00;3536669;40;20087;-68
2021/04/07 00:05:09;;;;;;;4.50;2.08;;;;;;;2.62;43.14;100991.72;3535164;40;20494;-68
2021/04/07 00:07:37;;;;;;;5.30;2.10;;;;;;;2.58;43.33;101000.91;3535596;40;20098;-68
2021/04/07 00:10:08;;;;;;;4.18;2.03;;;;;;;2.59;43.43;100994.56;3535375;40;20070;-69
2021/04/07 00:12:35;;;;;;;4.25;2.08;;;;;;;2.55;43.05;100997.41;3534303;40;20035;-68
2021/04/07 00:15:06;;;;;;;4.82;2.38;;;;;;;2.55;42.99;100999.22;3536484;40;20090;-69
2021/04/07 00:17:33;;;;;;;4.78;2.28;;;;;;;2.52;42.83;100994.88;3536091;40;20050;-69
2021/04/07 00:20:00;;;;;;;6.82;2.60;;;;;;;2.50;42.85;100999.47;3536015;40;20042;-68
2021/04/07 00:22:28;;;;;;;6.93;2.47;;;;;;;2.50;42.92;100996.78;3537205;40;20050;-69
2021/04/07 00:24:55;;;;;;;6.05;2.80;;;;;;;2.49;42.90;100994.16;3536164;40;20056;-69
2021/04/07 00:27:26;;;;;;;5.00;2.80;;;;;;;2.49;42.85;100992.31;3531026;40;20081;-68
2021/04/07 00:29:53;;;;;;;4.95;2.67;;;;;;;2.47;42.93;100983.41;3534278;40;20318;-68
2021/04/07 00:32:21;;;;;;;4.20;2.67;;;;;;;2.47;43.45;100991.50;3537095;40;20098;-68
2021/04/07 00:34:48;;;;;;;4.78;2.70;;;;;;;2.46;43.04;100992.50;3537337;40;20069;-69
2021/04/07 00:37:15;;;;;;;5.32;2.42;;;;;;;2.45;43.26;100987.16;3535498;40;20339;-69
2021/04/07 00:39:42;;;;;;;5.38;3.00;;;;;;;2.44;42.99;100986.28;3534794;40;20083;-69
2021/04/07 00:42:09;;;;;;;5.63;2.50;;;;;;;2.44;43.34;100989.00;3535398;40;20050;-67
2021/04/07 00:44:38;;;;;;;4.07;2.53;;;;;;;2.44;42.88;100991.69;3536082;40;20059;-68
2021/04/07 00:47:05;;;;;;;5.55;2.88;;;;;;;2.42;43.12;100996.28;3536368;40;20050;-68
2021/04/07 00:49:33;;;;;;;5.10;2.75;;;;;;;2.41;42.96;100999.06;3536250;40;20080;-67
2021/04/07 00:52:01;;;;;;;5.82;2.30;;;;;;;2.41;43.30;100997.22;3535604;40;20490;-68
2021/04/07 00:54:29;;;;;;;4.13;2.47;;;;;;;2.40;42.93;100987.38;3535434;40;20062;-67
2021/04/07 00:56:56;;;;;;;5.10;2.60;;;;;;;2.39;43.12;100996.44;3535710;40;20051;-67
2021/04/07 00:59:23;;;;;;;4.90;2.60;;;;;;;2.39;43.07;101001.81;3535706;40;20318;-68
2021/04/07 01:01:52;;;;;;;4.13;2.40;;;;;;;2.40;43.07;100995.47;3537178;40;20062;-68
2021/04/07 01:04:21;;;;;;;5.60;2.72;;;;;;;2.40;43.18;100994.59;3535419;40;20050;-68
2021/04/07 01:06:49;;;;;;;5.47;2.97;;;;;;;2.39;43.32;101004.53;3535978;40;20050;-68
2021/04/07 01:09:16;;;;;;;6.68;2.67;;;;;;;2.38;43.14;101013.56;3536633;40;20106;-68
2021/04/07 01:11:44;;;;;;;5.00;2.67;;;;;;;2.39;43.29;101011.75;3536334;40;20140;-68
2021/04/07 01:14:12;;;;;;;5.10;2.72;;;;;;;2.37;43.16;101009.16;3533876;40;20065;-68
2021/04/07 01:16:41;;;;;;;5.68;2.60;;;;;;;2.37;43.17;101009.16;3536604;40;20086;-68
2021/04/07 01:19:10;;;;;;;5.93;2.75;;;;;;;2.36;42.92;101009.22;3543134;40;20062;-67
2021/04/07 01:21:38;;;;;;;4.88;2.42;;;;;;;2.34;43.02;101006.59;3536355;40;20157;-68
2021/04/07 01:24:07;;;;;;;4.00;2.38;;;;;;;2.34;43.02;101013.81;3536149;40;20059;-68
2021/04/07 01:26:36;;;;;;;5.53;2.50;;;;;;;2.32;43.14;101018.41;3536491;40;20062;-68
2021/04/07 01:29:03;;;;;;;4.57;2.28;;;;;;;2.29;43.28;101011.38;3534598;40;20050;-68
2021/04/07 01:31:31;;;;;;;4.72;2.28;;;;;;;2.29;43.24;101021.28;3534817;40;20425;-67
2021/04/07 01:33:58;;;;;;;4.47;2.30;;;;;;;2.28;43.44;101019.53;3535801;40;21199;-68
2021/04/07 01:36:25;;;;;;;3.60;1.98;;;;;;;2.28;43.40;101016.81;3536776;40;20062;-68
2021/04/07 01:38:52;;;;;;;3.58;2.15;;;;;;;2.27;43.44;101012.38;3535119;40;20055;-68
2021/04/07 01:41:22;;;;;;;6.03;2.17;;;;;;;2.28;43.15;101020.41;3536593;40;20068;-68
2021/04/07 01:43:49;;;;;;;3.85;1.98;;;;;;;2.27;43.53;101023.19;3535284;40;20114;-67
2021/04/07 01:46:17;;;;;;;4.88;2.05;;;;;;;2.28;43.29;101016.81;3534955;40;20129;-68
2021/04/07 01:48:45;;;;;;;4.47;2.13;;;;;;;2.27;43.23;101020.47;3536787;40;20310;-68
2021/04/07 01:51:13;;;;;;;5.30;2.78;;;;;;;2.26;43.18;101021.41;3535166;40;20047;-68
2021/04/07 01:53:39;;;;;;;3.97;2.20;;;;;;;2.26;43.31;101016.91;3536142;40;20063;-68
2021/04/07 01:56:09;;;;;;;5.85;2.20;;;;;;;2.27;43.72;101024.06;3535692;40;20068;-68
2021/04/07 01:58:38;;;;;;;4.75;2.35;;;;;;;2.27;43.66;101015.94;3537838;40;20055;-68
2021/04/07 02:01:06;;;;;;;4.53;2.30;;;;;;;2.26;43.51;101022.28;3535864;40;20338;-68
2021/04/07 02:03:34;;;;;;;4.57;2.35;;;;;;;2.25;43.57;101017.84;3536867;40;20069;-68
2021/04/07 02:06:01;;;;;;;4.70;2.38;;;;;;;2.25;43.32;101027.75;3537610;40;20299;-68
2021/04/07 02:08:28;;;;;;;8.82;2.70;;;;;;;2.24;43.28;101024.19;3539603;40;20325;-68
2021/04/07 02:10:55;;;;;;;5.50;2.20;;;;;;;2.24;43.51;101031.41;3542053;40;20148;-68
2021/04/07 02:13:23;;;;;;;4.18;2.20;;;;;;;2.24;43.58;101026.00;3537462;40;20145;-68
2021/04/07 02:15:51;;;;;;;4.20;2.53;;;;;;;2.23;43.36;101019.75;3537604;40;20140;-68
2021/04/07 02:18:18;;;;;;;5.00;2.47;;;;;;;2.22;43.65;101022.53;3538369;40;20069;-68
2021/04/07 02:20:45;;;;;;;6.20;2.25;;;;;;;2.23;43.56;101021.56;3537801;40;20309;-68
2021/04/07 02:23:12;;;;;;;4.05;1.95;;;;;;;2.22;43.51;101015.28;3537258;40;20325;-68
2021/04/07 02:25:40;;;;;;;4.95;2.20;;;;;;;2.22;43.85;101022.53;3538090;40;20505;-68
2021/04/07 02:28:07;;;;;;;3.92;2.22;;;;;;;2.22;43.41;101023.38;3537147;40;20062;-68
2021/04/07 02:30:35;;;;;;;4.97;2.45;;;;;;;2.24;43.45;101009.81;3537126;40;20058;-68
2021/04/07 02:33:03;;;;;;;5.63;2.60;;;;;;;2.23;43.75;101011.63;3537501;40;20062;-68
2021/04/07 02:35:30;;;;;;;4.03;2.47;;;;;;;2.23;43.67;101011.63;3537383;40;20057;-68
2021/04/07 02:37:57;;;;;;;5.35;3.05;;;;;;;2.23;43.95;101008.06;3534808;40;20410;-68
2021/04/07 02:40:25;;;;;;;5.10;2.80;;;;;;;2.23;43.59;101016.16;3537276;40;20043;-68
2021/04/07 02:42:52;;;;;;;6.07;2.90;;;;;;;2.22;43.86;101012.59;3537982;40;20137;-68
2021/04/07 02:45:19;;;;;;;4.95;2.97;;;;;;;2.23;43.33;101022.44;3536415;40;20053;-68
2021/04/07 02:47:46;;;;;;;4.35;3.05;;;;;;;2.23;43.75;101018.88;3537930;40;20065;-68
2021/04/07 02:50:14;;;;;;;5.72;3.53;;;;;;;2.22;43.85;101012.59;3537122;40;20042;-67
2021/04/07 02:52:41;;;;;;;6.68;3.30;;;;;;;2.21;43.65;101008.16;3537884;40;20117;-68
2021/04/07 02:55:10;;;;;;;4.50;2.90;;;;;;;2.22;43.68;101011.75;3534314;40;20058;-68
2021/04/07 02:57:37;;;;;;;8.70;3.60;;;;;;;2.21;43.49;101007.28;3535003;40;20090;-68
2021/04/07 03:00:07;;;;;;;6.53;3.30;;;;;;;2.21;43.63;101002.78;3536620;40;20058;-67
2021/04/07 03:02:34;;;;;;;5.75;3.08;;;;;;;2.21;43.76;100999.19;3536846;40;20056;-68
2021/04/07 03:05:01;;;;;;;6.50;3.47;;;;;;;2.20;43.89;101008.25;3536175;40;20116;-68
2021/04/07 03:07:30;;;;;;;5.20;2.92;;;;;;;2.22;44.00;101015.28;3536567;40;20070;-68
2021/04/07 03:09:57;;;;;;;6.35;3.28;;;;;;;2.21;43.64;101010.00;3537132;40;20057;-68
2021/04/07 03:12:24;;;;;;;5.95;3.30;;;;;;;2.20;43.67;101017.22;3537109;40;20045;-68
2021/04/07 03:14:52;;;;;;;5.97;3.85;;;;;;;2.20;43.82;101017.22;3536245;40;20061;-68
2021/04/07 03:17:20;;;;;;;6.07;3.55;;;;;;;2.20;44.09;101017.22;3536953;40;20050;-68
2021/04/07 03:19:47;;;;;;;7.03;3.72;;;;;;;2.18;43.69;101017.28;3537199;40;20050;-68
2021/04/07 03:22:14;;;;;;;6.35;4.10;;;;;;;2.18;43.69;101014.59;3536543;40;20053;-67
2021/04/07 03:24:42;;;;;;;6.15;3.97;;;;;;;2.19;44.17;101020.84;3536739;40;20059;-68
2021/04/07 03:27:09;;;;;;;5.43;3.88;;;;;;;2.18;43.80;101019.09;3535614;40;20054;-67
2021/04/07 03:29:36;;;;;;;7.32;4.18;;;;;;;2.17;43.86;101020.03;3537090;40;20519;-68
2021/04/07 03:32:04;;;;;;;5.30;3.53;;;;;;;2.17;43.66;101015.53;3536999;40;20357;-68
2021/04/07 03:34:31;;;;;;;7.10;3.88;;;;;;;2.17;44.04;101017.34;3537260;40;20137;-68
2021/04/07 03:36:58;;;;;;;7.05;4.45;;;;;;;2.17;44.14;101022.75;3537309;40;20072;-68
2021/04/07 03:39:25;;;;;;;8.30;3.97;;;;;;;2.17;44.00;101026.31;3537078;40;20104;-68
2021/04/07 03:41:53;;;;;;;7.20;3.63;;;;;;;2.19;43.98;101026.25;3536000;40;20051;-68
2021/04/07 03:44:22;;;;;;;7.30;4.30;;;;;;;2.16;44.12;101016.47;3537230;40;20070;-68
2021/04/07 03:46:53;;;;;;;5.35;3.33;;;;;;;2.18;44.39;101013.69;3536061;40;20650;-68
2021/04/07 03:49:20;;;;;;;5.97;3.65;;;;;;;2.16;43.96;101016.47;3543714;40;20061;-67
2021/04/07 03:51:48;;;;;;;6.22;3.45;;;;;;;2.15;44.06;101009.31;3536757;40;20106;-68
2021/04/07 03:54:15;;;;;;;6.97;3.92;;;;;;;2.15;44.01;101017.41;3536987;40;20325;-68
2021/04/07 03:56:42;;;;;;;5.80;3.97;;;;;;;2.15;43.90;101005.75;3536453;40;20464;-68
2021/04/07 03:59:10;;;;;;;7.07;4.05;;;;;;;2.14;44.44;101015.66;3536669;40;20059;-68
2021/04/07 04:01:37;;;;;;;5.97;3.72;;;;;;;2.14;44.40;101014.78;3535751;40;20063;-68
2021/04/07 04:04:05;;;;;;;6.00;3.60;;;;;;;2.15;44.24;101019.25;3535415;40;20076;-68
2021/04/07 04:06:32;;;;;;;7.95;4.20;;;;;;;2.15;44.25;101021.94;3536444;40;20055;-68
2021/04/07 04:08:59;;;;;;;6.47;4.00;;;;;;;2.15;44.20;101000.34;3536730;40;20061;-68
2021/04/07 04:11:26;;;;;;;7.50;4.30;;;;;;;2.15;44.62;101013.84;3572371;23;20058;-70
2021/04/07 04:13:54;;;;;;;6.60;3.70;;;;;;;2.15;44.27;101009.31;3546253;40;20322;-70
2021/04/07 04:16:22;;;;;;;8.55;4.40;;;;;;;2.16;44.68;101013.78;3546533;40;20383;-70
2021/04/07 04:18:50;;;;;;;7.43;4.10;;;;;;;2.17;44.46;101006.56;3547282;40;20074;-69
2021/04/07 04:21:17;;;;;;;6.85;4.32;;;;;;;2.16;44.33;101008.38;3549813;40;20047;-69
2021/04/07 04:23:44;;;;;;;6.65;3.55;;;;;;;2.17;44.57;101007.44;3538046;40;20561;-69
2021/04/07 04:26:11;;;;;;;7.72;4.00;;;;;;;2.17;44.44;101009.25;3538908;40;20562;-70
2021/04/07 04:28:38;;;;;;;5.95;3.53;;;;;;;2.19;44.42;101018.16;3537742;40;20059;-70
2021/04/07 04:31:05;;;;;;;6.82;3.92;;;;;;;2.20;44.50;101019.03;3539132;40;20082;-69
2021/04/07 04:33:33;;;;;;;7.07;3.88;;;;;;;2.21;44.48;101018.97;3535712;40;20054;-70
2021/04/07 04:36:00;;;;;;;7.40;4.15;;;;;;;2.21;44.50;101027.06;3540256;40;20060;-69
2021/04/07 04:38:28;;;;;;;7.22;3.72;;;;;;;2.22;44.40;101019.84;3537596;40;20311;-70
2021/04/07 04:40:55;;;;;;;5.82;3.88;;;;;;;2.21;44.59;101018.09;3538615;40;20079;-69
2021/04/07 04:43:22;;;;;;;5.53;3.70;;;;;;;2.21;44.62;101020.78;3544376;40;20050;-70
2021/04/07 04:45:49;;;;;;;8.70;4.15;;;;;;;2.20;44.88;101011.81;3537253;40;20050;-70
2021/04/07 04:48:16;;;;;;;8.93;4.97;;;;;;;2.20;44.41;101003.72;3537187;40;20266;-69
2021/04/07 04:50:44;;;;;;;7.65;4.10;;;;;;;2.21;44.85;101010.88;3537818;40;20317;-69
2021/04/07 04:53:11;;;;;;;6.25;3.83;;;;;;;2.20;44.41;101021.72;3537732;40;20058;-70
2021/04/07 04:55:38;;;;;;;6.63;3.90;;;;;;;2.17;44.67;101025.44;3537739;40;20176;-69
2021/04/07 04:58:05;;;;;;;7.00;3.80;;;;;;;2.17;44.54;101029.03;3539669;40;20050;-69
2021/04/07 05:00:32;;;;;;;6.05;3.97;;;;;;;2.16;44.59;101035.38;3537197;40;20059;-70
2021/04/07 05:02:59;;;;;;;6.53;4.05;;;;;;;2.14;44.76;101031.84;3536988;40;20047;-69
2021/04/07 05:05:28;;;;;;;5.97;3.53;;;;;;;2.15;44.74;101030.03;3537370;40;20051;-69
2021/04/07 05:08:00;;;;;;;8.18;4.07;;;;;;;2.14;44.84;101042.66;3540844;40;20071;-69
2021/04/07 05:10:27;;;;;;;6.18;4.30;;;;;;;2.12;44.95;101041.00;3536944;40;20149;-69
2021/04/07 05:12:55;;;;;;;5.50;3.53;;;;;;;2.11;44.88;101040.13;3536571;40;20175;-70
2021/04/07 05:15:22;;;;;;;7.63;4.43;;;;;;;2.12;44.85;101039.19;3537489;40;20651;-69
2021/04/07 05:17:50;;;;;;;7.07;4.32;;;;;;;2.11;44.96;101037.41;3543220;40;20038;-70
2021/04/07 05:20:18;;;;;;;6.78;4.60;;;;;;;2.10;45.16;101041.06;3537812;40;20149;-69
2021/04/07 05:22:45;;;;;;;6.30;4.03;;;;;;;2.08;45.06;101040.25;3536945;40;20062;-70
2021/04/07 05:25:14;;;;;;;5.80;4.35;;;;;;;2.07;45.61;101026.84;3536754;40;20081;-70
2021/04/07 05:27:41;;;;;;;6.90;4.05;;;;;;;2.06;45.19;101030.47;3538911;40;20058;-70
2021/04/07 05:30:09;;;;;;;6.35;4.60;;;;;;;2.05;45.31;101039.53;3537544;40;20042;-71
2021/04/07 05:32:37;;;;;;;8.20;4.30;;;;;;;2.05;45.47;101034.16;3537832;40;20062;-70
2021/04/07 05:35:05;;;;;;;5.50;3.60;;;;;;;2.05;45.07;101037.69;3540093;40;20066;-70
2021/04/07 05:37:32;;;;;;;6.32;3.88;;;;;;;2.04;45.30;101030.56;3537800;40;20149;-69
2021/04/07 05:39:59;;;;;;;5.22;4.03;;;;;;;2.03;45.40;101023.44;3540124;40;20068;-70
2021/04/07 05:42:27;;;;;;;5.35;3.35;;;;;;;2.04;45.30;101035.97;3539829;40;20051;-70
2021/04/07 05:44:55;;;;;;;4.93;3.70;;;;;;;2.02;45.39;101035.16;3543429;40;20050;-70
2021/04/07 05:47:22;;;;;;;5.28;3.40;;;;;;;2.01;45.26;101025.31;3554422;40;20057;-70
2021/04/07 05:49:51;;;;;;;5.45;3.70;;;;;;;2.00;45.71;101030.78;3544594;40;20323;-70
2021/04/07 05:52:18;;;;;;;6.60;3.70;;;;;;;2.01;45.46;101019.91;3540732;40;20066;-70
2021/04/07 05:54:45;;;;;;;4.72;3.53;;;;;;;2.01;45.48;101035.22;3538816;40;20054;-72
2021/04/07 05:57:12;;;;;;;4.38;3.03;;;;;;;2.00;45.48;101028.09;3540237;40;20152;-69
2021/04/07 05:59:40;;;;;;;5.32;3.53;;;;;;;2.00;45.74;101028.97;3538748;40;20050;-71
2021/04/07 06:02:07;;;;;;;4.45;3.10;;;;;;;2.00;45.58;101028.09;3536738;40;20325;-71
2021/04/07 06:04:34;;;;;;;4.68;3.20;;;;;;;1.99;45.87;101024.50;3536183;40;20062;-70
2021/04/07 06:07:01;;;;;;;4.15;2.90;;;;;;;1.99;46.12;101018.22;3540197;40;20092;-71
2021/04/07 06:09:29;;;;;;;4.07;2.97;;;;;;;1.98;46.24;101028.16;3536965;40;20121;-73
2021/04/07 06:11:57;;;;;;;4.20;2.95;;;;;;;1.97;45.84;101025.56;3539009;40;20031;-72
2021/04/07 06:14:24;;;;;;;4.55;3.30;;;;;;;1.94;46.24;101028.38;3540390;40;20309;-73
2021/04/07 06:16:52;;;;;;;4.78;3.50;;;;;;;1.95;46.12;101027.44;3540257;40;20046;-72
2021/04/07 06:19:19;;;;;;;5.55;3.45;;;;;;;1.94;46.45;101023.88;3539862;40;20039;-72
2021/04/07 06:21:46;;;;;;;5.45;3.05;;;;;;;1.93;46.45;101029.31;3540397;40;20485;-72
2021/04/07 06:24:13;;;;;;;6.65;3.65;;;;;;;1.91;45.94;101025.81;3541099;40;20054;-72
2021/04/07 06:26:40;;;;;;;5.50;3.45;;;;;;;1.91;46.47;101009.63;3540059;40;20050;-72
2021/04/07 06:29:07;;;;;;;4.70;3.30;;;;;;;1.91;45.87;101005.13;3540213;40;20095;-72
2021/04/07 06:31:39;;;;;;;4.95;3.30;;;;;;;1.91;46.39;101012.34;3540633;40;20034;-72
2021/04/07 06:34:07;;;;;;;4.97;3.40;;;;;;;1.91;46.61;101018.59;3540783;40;20035;-71
2021/04/07 06:36:34;;;;;;;5.97;3.85;;;;;;;1.89;46.41;101017.78;3531656;40;20102;-71
2021/04/07 06:39:02;;;;;;;6.65;3.72;;;;;;;1.89;46.14;101019.66;3540109;40;20035;-71
2021/04/07 06:41:29;;;;;;;6.60;3.97;;;;;;;1.86;46.82;101011.69;3540137;40;20410;-71
2021/04/07 06:43:58;;;;;;;6.40;3.40;;;;;;;1.88;46.81;101010.69;3539768;40;20572;-71
2021/04/07 06:46:26;;;;;;;5.95;3.58;;;;;;;1.89;46.46;101004.31;3540213;40;20414;-71
2021/04/07 06:48:53;;;;;;;8.27;4.10;;;;;;;1.86;46.89;101017.09;3540349;40;20477;-72
2021/04/07 06:51:22;;;;;;;7.60;3.83;;;;;;;1.88;47.01;101013.38;3540167;40;20050;-73
2021/04/07 06:53:51;;;;;;;6.07;3.70;;;;;;;1.87;46.86;101019.72;3540189;40;20043;-71
2021/04/07 06:56:19;;;;;;;6.93;3.92;;;;;;;1.90;46.64;101013.28;3539966;40;20038;-70
2021/04/07 06:58:46;;;;;;;5.72;3.70;;;;;;;1.90;46.66;101016.84;3538905;40;20054;-69
2021/04/07 07:01:13;;;;;;;6.85;4.30;;;;;;;1.90;47.05;101018.66;3538694;40;20063;-70
2021/04/07 07:03:41;;;;;;;8.10;3.90;;;;;;;1.90;46.94;101018.66;3538337;40;20065;-70
2021/04/07 07:06:09;;;;;;;5.90;3.35;;;;;;;1.91;46.61;101015.91;3535468;40;20061;-70
2021/04/07 07:08:42;;;;;;;6.15;3.50;;;;;;;1.91;47.13;101015.03;3538797;40;20148;-69
2021/04/07 07:11:13;;;;;;;5.18;3.40;;;;;;;1.94;47.40;101013.06;3538616;40;20106;-70
2021/04/07 07:13:40;;;;;;;6.38;3.80;;;;;;;1.90;47.30;100992.56;3543716;40;20056;-70
2021/04/07 07:16:09;;;;;;;4.43;2.85;;;;;;;1.95;47.07;101013.94;3547781;40;20050;-69
2021/04/07 07:18:42;;;;;;;5.93;2.88;;;;;;;1.98;47.82;101001.16;3541105;40;20403;-70
2021/04/07 07:21:15;;;;;;;5.05;3.15;;;;;;;1.98;47.27;101003.88;3538786;40;20050;-70
2021/04/07 07:23:46;;;;;;;7.50;3.42;;;;;;;1.99;47.44;101002.94;3538585;40;20055;-70
2021/04/07 07:26:15;;;;;;;6.57;3.22;;;;;;;2.02;47.00;101010.00;3539275;40;20453;-70
2021/04/07 07:28:44;;;;;;;5.35;3.22;;;;;;;2.02;47.14;101018.97;3539586;40;20058;-69
2021/04/07 07:31:24;;;;;;;5.38;3.17;;;;;;;2.07;47.65;101011.53;3545284;40;20038;-70
2021/04/07 07:33:52;;;;;;;3.80;2.55;;;;;;;2.06;46.78;101008.88;3538951;40;20054;-70
2021/04/07 07:36:19;;;;;;;4.40;2.53;;;;;;;2.09;46.89;101016.84;3543475;40;20055;-70
2021/04/07 07:38:50;;;;;;;5.53;2.90;;;;;;;2.07;47.18;101016.91;3537057;40;20462;-70
2021/04/07 07:41:20;;;;;;;4.65;2.80;;;;;;;2.08;47.14;101007.00;3542972;40;20418;-71
2021/04/07 07:43:47;;;;;;;4.13;2.63;;;;;;;2.11;46.94;101009.56;3542500;40;20337;-71
2021/04/07 07:46:16;;;;;;;4.18;2.70;;;;;;;2.05;47.21;101016.09;3540792;40;20054;-70
2021/04/07 07:48:44;;;;;;;3.70;2.42;;;;;;;2.08;46.91;101018.66;3541304;40;20086;-71
2021/04/07 07:51:16;;;;;;;4.28;2.50;;;;;;;2.12;47.28;101027.50;3554875;40;20402;-70
2021/04/07 07:53:45;;;;;;;3.53;2.33;;;;;;;2.08;46.79;101021.38;3538983;40;20038;-71
2021/04/07 07:56:15;;;;;;;4.32;2.78;;;;;;;2.10;46.97;101026.69;3534794;40;20308;-70
2021/04/07 07:58:44;;;;;;;4.80;2.70;;;;;;;2.11;46.89;101040.13;3537712;40;20088;-70
2021/04/07 08:01:14;;;;;;;3.50;2.28;;;;;;;2.13;46.73;101037.34;3554011;40;20043;-70
2021/04/07 08:03:42;;;;;;;4.50;2.70;;;;;;;2.12;47.19;101022.97;3545516;40;20055;-71
2021/04/07 08:06:09;;;;;;;3.95;2.40;;;;;;;2.13;47.14;101035.53;3554046;40;20084;-71
2021/04/07 08:08:47;;;;;;;4.07;2.60;;;;;;;2.14;47.02;101041.78;3539220;40;20062;-71
2021/04/07 08:11:15;;;;;;;4.22;2.40;;;;;;;2.17;46.96;101047.91;3536123;40;20031;-71
2021/04/07 08:13:45;;;;;;;4.88;2.63;;;;;;;2.20;47.03;101049.59;3545285;40;20054;-71
2021/04/07 08:16:16;;;;;;;3.80;2.10;;;;;;;2.21;47.02;101045.06;3537581;40;20071;-71
2021/04/07 08:18:45;;;;;;;3.30;2.08;;;;;;;2.23;47.12;101049.44;3536021;40;20058;-71
2021/04/07 08:21:15;;;;;;;4.15;2.40;;;;;;;2.22;46.82;101058.47;3533593;40;20456;-71
2021/04/07 08:23:45;;;;;;;3.28;2.20;;;;;;;2.26;47.54;101051.09;3538300;40;20090;-72
2021/04/07 08:26:16;;;;;;;3.58;2.20;;;;;;;2.25;47.26;101052.94;3538381;40;20051;-71
2021/04/07 08:28:44;;;;;;;4.00;2.20;;;;;;;2.29;47.15;101068.03;3539059;40;20114;-71
2021/04/07 08:31:14;;;;;;;3.13;2.00;;;;;;;2.30;47.25;101071.63;3536662;40;20571;-72
2021/04/07 08:33:47;;;;;;;4.28;2.10;;;;;;;2.31;47.34;101081.44;3534509;40;20658;-70
2021/04/07 08:36:18;;;;;;;4.25;2.13;;;;;;;2.32;47.46;101073.28;3537480;40;20046;-71
2021/04/07 08:38:45;;;;;;;3.22;2.20;;;;;;;2.31;47.03;101078.75;3538305;40;20050;-70
2021/04/07 08:41:22;;;;;;;5.53;2.75;;;;;;;2.31;47.90;101076.03;3539152;40;20054;-71
2021/04/07 08:43:52;;;;;;;4.13;2.08;;;;;;;2.32;47.26;101072.41;3548826;40;20050;-71
2021/04/07 08:46:23;;;;;;;3.13;1.60;;;;;;;2.32;46.87;101086.78;3544844;40;20058;-71
2021/04/07 08:48:51;;;;;;;2.97;1.90;;;;;;;2.32;47.38;101081.38;3535702;40;20078;-71
2021/04/07 08:51:21;;;;;;;2.78;1.98;;;;;;;2.34;47.13;101079.47;3535224;40;20070;-71
2021/04/07 08:53:55;;;;;;;4.50;1.83;;;;;;;2.35;47.05;101077.66;3536846;40;20067;-71
2021/04/07 08:56:26;;;;;;;3.55;1.80;;;;;;;2.35;47.33;101067.75;3538925;40;20110;-71
2021/04/07 08:58:55;;;;;;;5.53;2.20;;;;;;;2.36;47.44;101080.28;3542768;40;20058;-70
2021/04/07 09:01:24;;;;;;;2.90;1.75;;;;;;;2.37;47.17;101095.53;3536131;40;20058;-71
2021/04/07 09:04:05;;;;;;;3.60;1.70;;;;;;;2.40;48.35;101086.41;3538205;40;20074;-71
2021/04/07 09:06:33;;;;;;;3.38;1.85;;;;;;;2.37;46.99;101089.28;3538828;40;20062;-71
2021/04/07 09:09:03;;;;;;;3.40;1.70;;;;;;;2.42;47.42;101096.19;3535506;40;20058;-71
2021/04/07 09:11:32;;;;;;;2.75;1.75;;;;;;;2.40;47.84;101095.38;3544003;40;20042;-70
2021/04/07 09:14:04;;;;;;;2.55;1.75;;;;;;;2.43;47.07;101122.22;3545367;40;20497;-70
2021/04/07 09:16:39;;;;;;;2.00;1.55;;;;;;;2.46;48.30;101116.69;3539221;40;20065;-70
2021/04/07 09:19:16;;;;;;;2.47;1.70;;;;;;;2.46;47.80;101113.13;3538136;40;20055;-70
2021/04/07 09:21:58;;;;;;;2.53;1.85;;;;;;;2.46;48.54;101114.00;3538404;40;20042;-71
2021/04/07 09:24:27;;;;;;;3.25;1.70;;;;;;;2.46;47.09;101107.72;3536584;40;20070;-70
2021/04/07 09:26:58;;;;;;;3.75;1.90;;;;;;;2.48;47.57;101105.78;3544973;40;20564;-71
2021/04/07 09:29:25;;;;;;;2.45;1.85;;;;;;;2.49;47.51;101115.66;3542839;40;20055;-70
2021/04/07 09:31:53;;;;;;;2.58;1.90;;;;;;;2.52;47.05;101119.09;3537729;40;20055;-70
2021/04/07 09:34:22;;;;;;;3.03;2.20;;;;;;;2.53;47.61;101133.47;3543946;40;20145;-70
2021/04/07 09:36:50;;;;;;;3.30;2.00;;;;;;;2.55;47.32;101126.16;3539327;40;20062;-70
2021/04/07 09:39:23;;;;;;;2.80;1.83;;;;;;;2.58;47.31;101127.81;3540467;40;20407;-70
2021/04/07 09:41:51;;;;;;;2.53;1.70;;;;;;;2.59;47.24;101126.88;3545864;40;20077;-70
2021/04/07 09:44:19;;;;;;;2.42;1.70;;;;;;;2.61;46.97;101125.88;3536168;40;20058;-70
2021/04/07 09:46:52;;;;;;;3.20;1.92;;;;;;;2.63;47.62;101123.09;3540496;40;20066;-70
2021/04/07 09:49:20;;;;;;;3.20;2.20;;;;;;;2.61;47.50;101130.41;3539240;40;20326;-70
2021/04/07 09:51:49;;;;;;;4.05;2.10;;;;;;;2.64;47.61;101136.50;3539260;40;20061;-70
2021/04/07 09:54:19;;;;;;;4.47;2.40;;;;;;;2.66;47.30;101136.44;3537263;40;20050;-70
2021/04/07 09:57:04;;;;;;;3.83;2.00;;;;;;;2.68;48.54;101138.13;3541617;40;20050;-70
2021/04/07 09:59:39;;;;;;;3.75;2.28;;;;;;;2.65;47.94;101127.44;3539832;40;20141;-70
2021/04/07 10:02:08;;;;;;;3.38;2.20;;;;;;;2.69;47.63;101134.47;3538634;40;20059;-70
2021/04/07 10:04:38;;;;;;;4.25;2.30;;;;;;;2.72;47.40;101142.41;3536317;40;20074;-70
2021/04/07 10:07:13;;;;;;;3.80;2.35;;;;;;;2.76;48.44;101146.72;3530265;40;20077;-70
2021/04/07 10:09:43;;;;;;;3.78;2.60;;;;;;;2.76;47.80;101145.84;3537200;40;20389;-70
2021/04/07 10:12:10;;;;;;;4.35;2.75;;;;;;;2.79;47.46;101138.47;3610781;23;20046;-73
2021/04/07 10:14:45;;;;;;;4.03;2.83;;;;;;;2.83;48.02;101148.16;3551476;40;20052;-73
2021/04/07 10:17:13;;;;;;;5.25;3.33;;;;;;;2.83;47.63;101142.75;3558926;40;20418;-75
2021/04/07 10:19:41;;;;;;;4.72;3.20;;;;;;;2.87;47.59;101146.19;3551245;40;20057;-75
2021/04/07 10:22:16;;;;;;;4.90;3.60;;;;;;;2.87;48.04;101144.38;3561773;40;20057;-76
2021/04/07 10:24:44;;;;;;;5.32;3.60;;;;;;;2.90;48.20;101146.03;3560704;40;20130;-77
2021/04/07 10:27:18;;;;;;;5.75;4.47;;;;;;;2.95;49.02;101152.09;3553595;40;20054;-74
2021/04/07 10:29:46;;;;;;;5.57;4.15;;;;;;;2.97;48.13;101154.69;3559722;40;20411;-74
2021/04/07 10:32:15;;;;;;;5.90;3.63;;;;;;;3.01;48.45;101159.00;3557766;40;20168;-74
2021/04/07 10:34:46;;;;;;;3.47;2.50;;;;;;;3.04;48.31;101159.72;3559054;40;20034;-76
2021/04/07 10:37:17;;;;;;;5.10;2.72;;;;;;;3.07;48.68;101164.97;3557982;40;20080;-75
2021/04/07 10:39:44;;;;;;;5.85;3.13;;;;;;;3.11;48.42;101171.13;3555703;40;20065;-75
2021/04/07 10:42:16;;;;;;;7.85;4.13;;;;;;;3.16;48.94;101175.31;3562309;40;20407;-74
2021/04/07 10:44:44;;;;;;;7.50;5.10;;;;;;;3.18;48.50;101188.78;3562265;40;20050;-74
2021/04/07 10:47:17;;;;;;;8.15;5.75;;;;;;;3.23;49.57;101192.09;3562290;40;20303;-74
2021/04/07 10:49:52;;;;;;;8.68;6.15;;;;;;;3.26;50.28;101191.97;3559556;40;20374;-76
2021/04/07 10:52:30;;;;;;;10.52;6.75;;;;;;;3.30;49.89;101193.53;3551803;40;20121;-77
2021/04/07 10:54:58;;;;;;;9.60;6.63;;;;;;;3.30;48.58;101197.13;3557787;40;20111;-77
2021/04/07 10:57:35;;;;;;;9.52;6.85;;;;;;;3.37;49.78;101196.84;3563154;40;20131;-76
2021/04/07 11:00:06;;;;;;;9.80;6.85;;;;;;;3.39;48.78;101205.72;3553177;40;20049;-76
2021/04/07 11:02:45;;;;;;;10.52;7.57;;;;;;;3.44;49.96;101209.97;3562445;40;20086;-75
2021/04/07 11:05:15;;;;;;;11.75;8.13;;;;;;;3.46;48.87;101207.16;3558790;40;20065;-79
2021/04/07 11:07:43;;;;;;;10.50;7.68;;;;;;;3.49;48.79;101209.72;3554722;40;20296;-75
2021/04/07 11:10:12;;;;;;;11.38;7.47;;;;;;;3.52;48.54;101212.28;3549101;40;20060;-75
2021/04/07 11:12:40;;;;;;;11.15;6.45;;;;;;;3.54;48.50;101216.63;3561022;40;20053;-76
2021/04/07 11:15:09;;;;;;;10.80;6.03;;;;;;;3.58;48.97;101210.13;3560316;40;20053;-77
2021/04/07 11:17:37;;;;;;;9.70;5.82;;;;;;;3.62;48.80;101217.13;3555252;40;20442;-73
2021/04/07 11:20:06;;;;;;;9.13;6.13;;;;;;;3.65;49.42;101219.69;3565406;40;20065;-75
2021/04/07 11:22:34;;;;;;;12.52;6.90;;;;;;;3.68;49.14;101218.66;3557314;40;20135;-74
2021/04/07 11:25:01;;;;;;;10.57;6.50;;;;;;;3.72;49.33;101219.38;3558479;40;20052;-73
2021/04/07 11:27:37;;;;;;;9.95;5.80;;;;;;;3.81;50.72;101213.47;3557771;40;20054;-74
2021/04/07 11:30:06;;;;;;;10.02;5.50;;;;;;;3.84;50.07;101213.31;3555624;40;20068;-73
2021/04/07 11:32:37;;;;;;;10.32;5.10;;;;;;;3.90;50.43;101213.00;3545239;40;20135;-76
2021/04/07 11:35:37;;;;;;;7.05;4.07;;;;;;;3.97;50.44;101207.16;3555988;40;20035;-75
2021/04/07 11:38:07;;;;;;;9.95;4.50;;;;;;;4.05;50.95;101206.75;3565118;40;20061;-75
2021/04/07 11:41:00;;;;;;;6.35;2.97;;;;;;;4.14;51.21;101200.84;3552049;40;20064;-75